createdAt,value
2023-05-05T00:01:10.703Z,6.03
2023-05-05T00:03:37.562Z,5.30
2023-05-05T00:06:05.504Z,7.40
2023-05-05T00:08:32.373Z,5.80
2023-05-05T00:10:58.955Z,5.68
2023-05-05T00:13:25.553Z,5.40
2023-05-05T00:15:53.635Z,5.18
2023-05-05T00:18:21.171Z,7.07
2023-05-05T00:20:48.509Z,5.20
2023-05-05T00:23:16.211Z,5.40
2023-05-05T00:25:42.880Z,5.30
2023-05-05T00:28:09.575Z,7.07
2023-05-05T00:30:37.315Z,5.75
2023-05-05T00:33:04.457Z,6.45
2023-05-05T00:35:31.149Z,5.90
2023-05-05T00:37:58.330Z,5.40
2023-05-05T00:40:25.396Z,6.97
2023-05-05T00:42:52.323Z,10.55
2023-05-05T00:45:20.045Z,9.25
2023-05-05T00:47:49.696Z,7.30
2023-05-05T00:50:23.715Z,5.90
2023-05-05T00:52:52.735Z,6.30
2023-05-05T00:55:19.749Z,5.60
2023-05-05T00:57:48.225Z,9.88
2023-05-05T01:00:14.927Z,8.38
2023-05-05T01:02:41.592Z,6.78
2023-05-05T01:05:13.743Z,5.70
2023-05-05T01:07:43.296Z,5.82
2023-05-05T01:10:28.384Z,6.20
2023-05-05T01:13:07.097Z,7.38
2023-05-05T01:15:37.674Z,7.15
2023-05-05T01:18:27.240Z,5.60
2023-05-05T01:21:06.649Z,5.72
2023-05-05T01:24:11.028Z,6.88
2023-05-05T01:26:56.320Z,6.00
2023-05-05T01:29:32.660Z,7.28
2023-05-05T01:32:07.830Z,6.50
2023-05-05T01:34:38.437Z,7.93
2023-05-05T01:37:19.946Z,9.45
2023-05-05T01:39:51.275Z,6.85
2023-05-05T01:42:18.895Z,5.22
2023-05-05T01:44:47.524Z,7.93
2023-05-05T01:47:18.507Z,7.18
2023-05-05T01:49:47.471Z,6.95
2023-05-05T01:52:16.103Z,6.80
2023-05-05T01:54:44.076Z,7.20
2023-05-05T01:57:12.094Z,7.30
2023-05-05T01:59:40.239Z,6.82
2023-05-05T02:02:10.344Z,6.60
2023-05-05T02:04:42.199Z,5.78
2023-05-05T02:07:10.952Z,7.40
2023-05-05T02:09:38.684Z,9.48
2023-05-05T02:12:06.758Z,6.70
2023-05-05T02:14:34.836Z,7.63
2023-05-05T02:17:02.165Z,6.60
2023-05-05T02:19:44.093Z,7.68
2023-05-05T02:22:12.189Z,6.18
2023-05-05T02:24:38.811Z,6.57
2023-05-05T02:27:07.611Z,6.28
2023-05-05T02:29:55.121Z,8.07
2023-05-05T02:32:32.155Z,8.75
2023-05-05T02:35:04.334Z,7.40
2023-05-05T02:37:33.968Z,7.40
2023-05-05T02:40:04.678Z,8.57
2023-05-05T02:42:37.404Z,6.40
2023-05-05T02:45:10.695Z,7.03
2023-05-05T02:47:38.646Z,7.63
2023-05-05T02:50:06.966Z,6.32
2023-05-05T02:52:34.255Z,9.93
2023-05-05T02:55:02.933Z,7.57
2023-05-05T02:57:37.222Z,8.57
2023-05-05T03:00:10.714Z,8.82
2023-05-05T03:02:46.754Z,8.40
2023-05-05T03:05:21.739Z,7.53
2023-05-05T03:08:09.179Z,6.65
2023-05-05T03:10:59.008Z,9.20
2023-05-05T03:13:28.406Z,7.28
2023-05-05T03:15:57.879Z,7.25
2023-05-05T03:18:26.263Z,6.80
2023-05-05T03:20:53.719Z,7.63
2023-05-05T03:23:21.071Z,7.28
2023-05-05T03:25:49.120Z,8.88
2023-05-05T03:28:16.685Z,8.90
2023-05-05T03:30:43.364Z,8.48
2023-05-05T03:33:12.979Z,8.27
2023-05-05T03:35:39.471Z,9.52
2023-05-05T03:38:06.037Z,7.63
2023-05-05T03:40:43.095Z,7.95
2023-05-05T03:43:11.314Z,6.78
2023-05-05T03:45:37.990Z,6.60
2023-05-05T03:48:05.041Z,8.65
2023-05-05T03:50:31.578Z,8.77
2023-05-05T03:52:58.044Z,11.48
2023-05-05T03:55:24.667Z,13.55
2023-05-05T03:57:51.265Z,7.30
2023-05-05T04:00:18.092Z,9.77
2023-05-05T04:02:44.663Z,8.57
2023-05-05T04:05:11.254Z,7.60
2023-05-05T04:07:37.786Z,8.45
2023-05-05T04:10:04.626Z,11.50
2023-05-05T04:12:31.278Z,11.27
2023-05-05T04:14:57.759Z,9.65
2023-05-05T04:17:24.346Z,7.35
2023-05-05T04:19:50.810Z,6.55
2023-05-05T04:22:17.282Z,8.70
2023-05-05T04:24:43.805Z,8.32
2023-05-05T04:27:10.317Z,7.75
2023-05-05T04:29:36.895Z,12.93
2023-05-05T04:32:03.466Z,11.48
2023-05-05T04:34:30.003Z,8.55
2023-05-05T04:36:56.514Z,11.95
2023-05-05T04:39:23.020Z,9.95
2023-05-05T04:41:49.512Z,8.02
2023-05-05T04:44:16.016Z,7.32
2023-05-05T04:46:42.562Z,13.60
2023-05-05T04:49:09.411Z,7.68
2023-05-05T04:51:35.900Z,7.97
2023-05-05T04:54:02.464Z,9.27
2023-05-05T04:56:31.538Z,13.10
2023-05-05T04:58:58.206Z,9.13
2023-05-05T05:01:24.838Z,9.55
2023-05-05T05:03:51.438Z,8.15
2023-05-05T05:06:17.988Z,10.75
2023-05-05T05:08:44.529Z,13.48
2023-05-05T05:11:11.191Z,11.77
2023-05-05T05:13:37.708Z,8.88
2023-05-05T05:16:04.500Z,11.35
2023-05-05T05:18:31.035Z,9.25
2023-05-05T05:20:57.527Z,11.70
2023-05-05T05:23:24.074Z,15.70
2023-05-05T05:25:50.744Z,15.02
2023-05-05T05:28:17.296Z,11.43
2023-05-05T05:30:43.771Z,12.55
2023-05-05T05:33:10.780Z,13.07
2023-05-05T05:35:37.423Z,11.27
2023-05-05T05:38:04.024Z,11.75
2023-05-05T05:40:31.540Z,12.70
2023-05-05T05:42:58.121Z,11.80
2023-05-05T05:45:24.630Z,15.80
2023-05-05T05:47:51.292Z,15.07
2023-05-05T05:50:17.988Z,12.57
2023-05-05T05:52:44.530Z,13.32
2023-05-05T05:55:11.151Z,16.50
2023-05-05T05:57:37.735Z,13.13
2023-05-05T06:00:04.907Z,19.92
2023-05-05T06:02:32.617Z,15.32
2023-05-05T06:04:59.080Z,20.75
2023-05-05T06:07:26.333Z,20.73
2023-05-05T06:09:52.974Z,13.77
2023-05-05T06:12:19.582Z,15.32
2023-05-05T06:14:46.304Z,13.77
2023-05-05T06:17:12.832Z,15.75
2023-05-05T06:19:41.001Z,15.88
2023-05-05T06:22:07.600Z,15.13
2023-05-05T06:24:34.113Z,15.60
2023-05-05T06:27:00.712Z,15.90
2023-05-05T06:29:28.103Z,17.17
2023-05-05T06:31:55.047Z,16.95
2023-05-05T06:34:21.673Z,17.30
2023-05-05T06:36:48.220Z,16.92
2023-05-05T06:39:16.069Z,16.60
2023-05-05T06:41:42.826Z,17.40
2023-05-05T06:44:10.637Z,17.75
2023-05-05T06:46:37.398Z,14.48
2023-05-05T06:49:03.890Z,14.93
2023-05-05T06:51:31.375Z,14.63
2023-05-05T06:53:57.851Z,11.60
2023-05-05T06:56:24.359Z,9.75
2023-05-05T06:58:50.874Z,11.38
2023-05-05T07:01:17.499Z,8.55
2023-05-05T07:03:44.813Z,12.15
2023-05-05T07:06:11.437Z,9.75
2023-05-05T07:08:37.967Z,9.68
2023-05-05T07:11:04.538Z,9.68
2023-05-05T07:13:31.177Z,9.55
2023-05-05T07:15:57.752Z,9.30
2023-05-05T07:18:24.261Z,9.32
2023-05-05T07:20:50.928Z,10.13
2023-05-05T07:23:17.485Z,8.77
2023-05-05T07:25:44.067Z,8.15
2023-05-05T07:28:11.040Z,11.18
2023-05-05T07:30:37.554Z,6.63
2023-05-05T07:33:04.280Z,8.73
2023-05-05T07:35:31.050Z,6.88
2023-05-05T07:37:57.575Z,6.10
2023-05-05T07:40:24.215Z,8.80
2023-05-05T07:42:50.928Z,6.47
2023-05-05T07:45:17.653Z,12.13
2023-05-05T07:47:44.336Z,6.93
2023-05-05T07:50:11.360Z,6.28
2023-05-05T07:52:48.364Z,7.93
2023-05-05T07:55:20.613Z,7.82
2023-05-05T07:57:47.712Z,7.80
2023-05-05T08:00:14.658Z,6.70
2023-05-05T08:02:41.683Z,8.18
2023-05-05T08:05:09.020Z,10.30
2023-05-05T08:07:38.231Z,7.78
2023-05-05T08:10:05.162Z,7.60
2023-05-05T08:12:31.715Z,10.43
2023-05-05T08:14:58.337Z,8.15
2023-05-05T08:17:26.988Z,8.60
2023-05-05T08:19:53.664Z,7.80
2023-05-05T08:22:22.115Z,7.13
2023-05-05T08:27:15.022Z,8.48
2023-05-05T08:29:41.545Z,9.30
2023-05-05T08:32:08.069Z,7.53
2023-05-05T08:34:34.675Z,12.25
2023-05-05T08:37:01.212Z,10.90
2023-05-05T08:39:27.693Z,9.25
2023-05-05T08:41:54.590Z,8.20
2023-05-05T08:44:21.932Z,10.45
2023-05-05T08:46:49.686Z,8.35
2023-05-05T08:49:17.790Z,8.65
2023-05-05T08:51:46.732Z,7.88
2023-05-05T08:54:20.493Z,8.10
2023-05-05T08:56:51.095Z,9.52
2023-05-05T08:59:20.419Z,7.47
2023-05-05T09:01:47.905Z,8.10
2023-05-05T09:04:14.569Z,8.60
2023-05-05T09:06:41.326Z,6.40
2023-05-05T09:09:10.922Z,4.78
2023-05-05T09:11:38.666Z,6.63
2023-05-05T09:14:05.251Z,6.88
2023-05-05T09:16:31.873Z,8.77
2023-05-05T09:19:04.931Z,9.85
2023-05-05T09:21:32.418Z,5.82
2023-05-05T09:24:12.269Z,7.30
2023-05-05T09:26:44.105Z,8.27
2023-05-05T09:29:17.955Z,6.30
2023-05-05T09:31:44.522Z,8.23
2023-05-05T09:34:15.921Z,7.20
2023-05-05T09:36:44.302Z,11.05
2023-05-05T09:41:38.986Z,6.15
2023-05-05T09:44:05.926Z,8.20
2023-05-05T09:46:32.712Z,6.53
2023-05-05T09:49:17.984Z,8.40
2023-05-05T09:51:48.141Z,7.55
2023-05-05T09:54:28.838Z,7.03
2023-05-05T09:56:57.046Z,6.22
2023-05-05T09:59:24.628Z,6.75
2023-05-05T10:01:51.790Z,7.30
2023-05-05T10:04:34.741Z,6.45
2023-05-05T10:07:01.346Z,5.18
2023-05-05T10:09:28.152Z,8.65
2023-05-05T10:11:56.663Z,6.30
2023-05-05T10:14:24.295Z,7.28
2023-05-05T10:16:52.661Z,6.55
2023-05-05T10:19:24.190Z,8.10
2023-05-05T10:21:52.799Z,6.63
2023-05-05T10:24:40.478Z,6.30
2023-05-05T10:27:19.644Z,7.57
2023-05-05T10:29:58.497Z,6.10
2023-05-05T10:32:54.349Z,5.03
2023-05-05T10:37:51.760Z,7.50
2023-05-05T10:40:21.704Z,5.60
2023-05-05T10:42:51.755Z,5.65
2023-05-05T10:45:18.425Z,9.10
2023-05-05T10:47:45.514Z,8.18
2023-05-05T10:50:26.269Z,5.95
2023-05-05T10:53:07.789Z,8.52
2023-05-05T10:55:57.148Z,8.38
2023-05-05T10:58:55.471Z,7.65
2023-05-05T11:01:34.181Z,9.52
2023-05-05T11:04:22.733Z,8.18
2023-05-05T11:07:08.719Z,8.65
2023-05-05T11:09:53.654Z,6.47
2023-05-05T11:12:20.454Z,7.55
2023-05-05T11:14:47.020Z,7.03
2023-05-05T11:17:45.751Z,11.38
2023-05-05T11:23:04.099Z,7.00
2023-05-05T11:25:41.068Z,4.25
2023-05-05T11:28:14.538Z,4.70
2023-05-05T11:30:56.932Z,7.30
2023-05-05T11:33:30.325Z,6.78
2023-05-05T11:35:58.549Z,8.90
2023-05-05T11:38:41.317Z,9.70
2023-05-05T11:41:16.745Z,8.35
2023-05-05T11:43:43.441Z,8.32
2023-05-05T11:46:14.196Z,9.73
2023-05-05T11:48:47.796Z,9.85
2023-05-05T11:51:16.310Z,8.80
2023-05-05T11:56:11.673Z,7.38
2023-05-05T11:58:38.583Z,5.47
2023-05-05T12:01:06.857Z,4.25
2023-05-05T12:03:37.775Z,3.65
2023-05-05T12:06:05.648Z,9.18
2023-05-05T12:08:39.523Z,4.60
2023-05-05T12:11:11.026Z,4.03
2023-05-05T12:13:37.611Z,7.95
2023-05-05T12:16:11.147Z,7.28
2023-05-05T12:18:37.959Z,5.18
2023-05-05T12:21:20.419Z,6.28
2023-05-05T12:23:47.022Z,4.25
2023-05-05T12:26:32.754Z,4.78
2023-05-05T12:29:00.796Z,2.83
2023-05-05T12:31:36.353Z,7.72
2023-05-05T12:34:04.390Z,5.30
2023-05-05T12:36:33.646Z,4.82
2023-05-05T12:39:00.232Z,7.03
2023-05-05T12:41:27.200Z,3.53
2023-05-05T12:44:01.524Z,4.03
2023-05-05T12:46:31.906Z,3.78
2023-05-05T12:49:06.797Z,6.50
2023-05-05T12:51:34.400Z,3.70
2023-05-05T12:54:05.599Z,5.30
2023-05-05T12:56:41.139Z,3.08
2023-05-05T12:59:09.302Z,4.43
2023-05-05T13:01:37.818Z,3.50
2023-05-05T13:04:14.813Z,4.50
2023-05-05T13:06:46.770Z,2.97
2023-05-05T13:09:27.606Z,3.30
2023-05-05T13:11:54.754Z,4.00
2023-05-05T13:14:21.618Z,2.83
2023-05-05T13:16:48.220Z,4.60
2023-05-05T13:19:15.986Z,3.75
2023-05-05T13:21:42.622Z,3.63
2023-05-05T13:24:23.384Z,4.32
2023-05-05T13:26:53.166Z,6.63
2023-05-05T13:29:19.907Z,4.15
2023-05-05T13:31:46.709Z,4.18
2023-05-05T13:34:13.391Z,3.15
2023-05-05T13:36:39.918Z,4.00
2023-05-05T13:39:07.020Z,4.00
2023-05-05T13:41:33.571Z,3.45
2023-05-05T13:44:00.161Z,5.07
2023-05-05T13:46:26.734Z,3.85
2023-05-05T13:48:56.627Z,3.40
2023-05-05T13:51:23.633Z,4.32
2023-05-05T13:53:50.383Z,4.25
2023-05-05T13:56:18.178Z,3.67
2023-05-05T13:58:44.915Z,3.75
2023-05-05T14:01:11.553Z,3.95
2023-05-05T14:03:39.546Z,5.10
2023-05-05T14:06:07.511Z,5.28
2023-05-05T14:08:34.227Z,5.82
2023-05-05T14:11:01.915Z,8.23
2023-05-05T14:13:28.870Z,5.55
2023-05-05T14:15:55.532Z,5.40
2023-05-05T14:18:22.863Z,8.88
2023-05-05T14:20:49.462Z,5.32
2023-05-05T14:23:16.080Z,6.10
2023-05-05T14:25:42.784Z,7.22
2023-05-05T14:28:09.331Z,5.13
2023-05-05T14:30:35.864Z,13.13
2023-05-05T14:33:02.481Z,11.20
2023-05-05T14:35:30.163Z,4.25
2023-05-05T14:37:56.779Z,5.95
2023-05-05T14:40:23.632Z,3.67
2023-05-05T14:42:50.884Z,2.63
2023-05-05T14:45:17.883Z,2.30
2023-05-05T14:47:44.585Z,5.32
2023-05-05T14:50:11.308Z,1.27
2023-05-05T14:52:40.146Z,2.42
2023-05-05T14:55:08.033Z,2.72
2023-05-05T14:57:34.821Z,2.30
2023-05-05T15:00:01.391Z,3.90
2023-05-05T15:02:27.982Z,3.55
2023-05-05T15:04:54.560Z,3.35
2023-05-05T15:07:22.690Z,2.65
2023-05-05T15:09:49.318Z,2.92
2023-05-05T15:12:16.080Z,1.73
2023-05-05T15:14:42.758Z,1.58
2023-05-05T15:17:09.359Z,2.75
2023-05-05T15:19:35.895Z,2.15
2023-05-05T15:22:02.515Z,4.18
2023-05-05T15:24:29.042Z,2.15
2023-05-05T15:26:55.582Z,4.45
2023-05-05T15:29:22.216Z,2.90
2023-05-05T15:31:48.944Z,4.97
2023-05-05T15:34:15.778Z,3.85
2023-05-05T15:36:42.298Z,3.10
2023-05-05T15:39:11.768Z,4.93
2023-05-05T15:41:38.278Z,4.15
2023-05-05T15:44:05.080Z,2.85
2023-05-05T15:46:33.457Z,3.63
2023-05-05T15:49:00.210Z,4.15
2023-05-05T15:51:27.415Z,3.78
2023-05-05T15:53:53.962Z,4.00
2023-05-05T15:56:20.502Z,4.07
2023-05-05T15:58:47.080Z,2.85
2023-05-05T16:01:13.641Z,4.57
2023-05-05T16:03:40.290Z,4.85
2023-05-05T16:06:07.429Z,3.30
2023-05-05T16:08:33.970Z,2.45
2023-05-05T16:11:01.339Z,3.35
2023-05-05T16:13:27.900Z,3.30
2023-05-05T16:15:54.425Z,2.38
2023-05-05T16:18:21.350Z,3.17
2023-05-05T16:20:47.897Z,4.28
2023-05-05T16:23:14.550Z,7.50
2023-05-05T16:25:41.015Z,8.48
2023-05-05T16:28:07.678Z,5.75
2023-05-05T16:30:34.305Z,6.72
2023-05-05T16:33:00.884Z,7.57
2023-05-05T16:35:27.431Z,4.75
2023-05-05T16:37:53.917Z,5.00
2023-05-05T16:40:20.507Z,3.83
2023-05-05T16:42:47.019Z,4.63
2023-05-05T16:45:13.522Z,5.35
2023-05-05T16:47:40.112Z,6.10
2023-05-05T16:50:07.176Z,7.63
2023-05-05T16:52:33.741Z,6.28
2023-05-05T16:55:00.337Z,6.38
2023-05-05T16:57:27.014Z,7.05
2023-05-05T16:59:56.157Z,7.07
2023-05-05T17:02:22.749Z,5.93
2023-05-05T17:04:49.353Z,8.27
2023-05-05T17:07:15.956Z,4.93
2023-05-05T17:09:42.510Z,4.57
2023-05-05T17:12:09.136Z,6.32
2023-05-05T17:14:36.298Z,3.63
2023-05-05T17:17:02.972Z,4.55
2023-05-05T17:19:29.468Z,4.75
2023-05-05T17:21:56.092Z,4.57
2023-05-05T17:24:22.960Z,7.57
2023-05-05T17:26:50.310Z,5.85
2023-05-05T17:29:20.192Z,8.18
2023-05-05T17:31:46.899Z,5.75
2023-05-05T17:34:13.474Z,3.90
2023-05-05T17:36:39.979Z,4.25
2023-05-05T17:39:06.556Z,4.35
2023-05-05T17:41:33.161Z,3.10
2023-05-05T17:43:59.729Z,7.35
2023-05-05T17:46:26.449Z,2.95
2023-05-05T17:48:53.076Z,3.70
2023-05-05T17:51:19.770Z,4.28
2023-05-05T17:53:46.324Z,3.42
2023-05-05T17:56:12.863Z,4.22
2023-05-05T17:58:39.352Z,3.63
2023-05-05T18:01:06.296Z,5.18
2023-05-05T18:03:33.025Z,6.38
2023-05-05T18:05:59.739Z,5.53
2023-05-05T18:08:27.667Z,3.90
2023-05-05T18:10:54.450Z,5.55
2023-05-05T18:13:21.547Z,5.20
2023-05-05T18:15:48.176Z,6.85
2023-05-05T18:18:14.807Z,5.25
2023-05-05T18:20:41.297Z,5.97
2023-05-05T18:23:07.840Z,6.03
2023-05-05T18:25:34.382Z,5.55
2023-05-05T18:28:00.955Z,6.85
2023-05-05T18:30:27.531Z,5.78
2023-05-05T18:32:54.190Z,6.38
2023-05-05T18:35:21.405Z,6.55
2023-05-05T18:37:48.084Z,6.40
2023-05-05T18:40:14.759Z,5.50
2023-05-05T18:42:41.588Z,5.15
2023-05-05T18:45:10.556Z,4.13
2023-05-05T18:47:39.012Z,5.07
2023-05-05T18:50:06.845Z,4.43
2023-05-05T18:52:33.859Z,5.45
2023-05-05T18:55:00.423Z,6.45
2023-05-05T18:57:28.212Z,7.60
2023-05-05T18:59:54.731Z,5.55
2023-05-05T19:02:21.586Z,5.30
2023-05-05T19:04:48.282Z,4.43
2023-05-05T19:07:27.611Z,7.25
2023-05-05T19:09:58.105Z,6.43
2023-05-05T19:12:24.717Z,6.15
2023-05-05T19:14:51.222Z,4.45
2023-05-05T19:17:17.786Z,4.30
2023-05-05T19:19:44.360Z,5.35
2023-05-05T19:22:11.023Z,5.32
2023-05-05T19:24:37.578Z,3.70
2023-05-05T19:27:04.228Z,6.18
2023-05-05T19:29:33.821Z,5.05
2023-05-05T19:32:00.585Z,4.80
2023-05-05T19:34:27.169Z,5.03
2023-05-05T19:36:53.831Z,4.25
2023-05-05T19:39:20.493Z,3.65
2023-05-05T19:41:47.109Z,5.65
2023-05-05T19:44:13.679Z,4.45
2023-05-05T19:46:40.387Z,5.63
2023-05-05T19:49:06.945Z,9.00
2023-05-05T19:51:33.490Z,9.13
2023-05-05T19:54:00.004Z,6.75
2023-05-05T19:56:26.582Z,8.05
2023-05-05T19:58:57.589Z,6.15
2023-05-05T20:01:25.244Z,5.60
2023-05-05T20:03:54.458Z,4.38
2023-05-05T20:06:21.767Z,4.40
2023-05-05T20:08:48.437Z,5.18
2023-05-05T20:11:16.915Z,7.05
2023-05-05T20:13:43.847Z,6.28
2023-05-05T20:16:10.414Z,4.88
2023-05-05T20:18:36.970Z,5.60
2023-05-05T20:21:03.761Z,7.15
2023-05-05T20:23:30.486Z,5.25
2023-05-05T20:25:57.454Z,7.05
2023-05-05T20:28:24.136Z,4.85
2023-05-05T20:30:50.882Z,10.07
2023-05-05T20:33:17.799Z,6.13
2023-05-05T20:35:44.397Z,12.20
2023-05-05T20:38:11.230Z,10.70
2023-05-05T20:40:37.872Z,4.75
2023-05-05T20:43:04.381Z,4.28
2023-05-05T20:45:33.286Z,4.75
2023-05-05T20:48:00.756Z,13.35
2023-05-05T20:50:27.381Z,6.30
2023-05-05T20:52:53.917Z,6.00
2023-05-05T20:55:20.599Z,8.15
2023-05-05T20:57:47.236Z,4.60
2023-05-05T21:00:15.183Z,5.80
2023-05-05T21:02:42.245Z,5.82
2023-05-05T21:05:09.088Z,6.72
2023-05-05T21:07:35.997Z,4.95
2023-05-05T21:10:03.475Z,5.68
2023-05-05T21:12:30.568Z,9.30
2023-05-05T21:14:58.910Z,4.25
2023-05-05T21:17:29.183Z,6.30
2023-05-05T21:19:56.850Z,6.50
2023-05-05T21:22:26.602Z,5.10
2023-05-05T21:24:54.218Z,5.13
2023-05-05T21:27:21.227Z,4.38
2023-05-05T21:29:50.548Z,4.25
2023-05-05T21:32:17.238Z,9.38
2023-05-05T21:34:43.795Z,8.20
2023-05-05T21:37:11.965Z,5.18
2023-05-05T21:39:38.465Z,6.05
2023-05-05T21:42:05.064Z,5.82
2023-05-05T21:44:31.586Z,4.28
2023-05-05T21:46:58.336Z,6.10
2023-05-05T21:49:24.863Z,4.90
2023-05-05T21:51:51.467Z,4.32
2023-05-05T21:54:18.078Z,4.85
2023-05-05T21:56:44.730Z,12.05
2023-05-05T21:59:11.327Z,5.25
2023-05-05T22:01:37.929Z,5.10
2023-05-05T22:04:04.590Z,6.07
2023-05-05T22:06:32.474Z,5.70
2023-05-05T22:08:58.995Z,5.47
2023-05-05T22:11:25.600Z,4.38
2023-05-05T22:13:52.194Z,6.20
2023-05-05T22:16:18.902Z,6.25
2023-05-05T22:18:46.061Z,8.45
2023-05-05T22:21:12.688Z,4.57
2023-05-05T22:23:41.401Z,6.38
2023-05-05T22:26:08.794Z,5.78
2023-05-05T22:28:35.604Z,4.07
2023-05-05T22:31:02.366Z,8.98
2023-05-05T22:33:28.885Z,35.33
2023-05-05T22:35:55.461Z,23.95
2023-05-05T22:38:21.999Z,16.40
2023-05-05T22:40:48.505Z,25.75
2023-05-05T22:43:15.211Z,22.02
2023-05-05T22:45:42.066Z,23.48
2023-05-05T22:48:08.629Z,18.20
2023-05-05T22:50:35.619Z,27.58
2023-05-05T22:53:02.112Z,11.90
2023-05-05T22:55:28.910Z,18.52
2023-05-05T22:57:55.467Z,35.17
2023-05-05T23:00:22.031Z,8.73
2023-05-05T23:02:48.634Z,10.18
2023-05-05T23:05:15.658Z,9.68
2023-05-05T23:07:42.151Z,6.32
2023-05-05T23:10:09.078Z,11.18
2023-05-05T23:12:35.810Z,9.52
2023-05-05T23:15:02.394Z,8.27
2023-05-05T23:17:28.931Z,7.50
2023-05-05T23:19:55.576Z,8.95
2023-05-05T23:22:22.097Z,7.65
2023-05-05T23:24:48.595Z,9.75
2023-05-05T23:27:15.144Z,13.05
2023-05-05T23:29:41.690Z,8.75
2023-05-05T23:32:08.400Z,8.27
2023-05-05T23:34:34.934Z,8.30
2023-05-05T23:37:02.261Z,8.68
2023-05-05T23:39:30.589Z,8.88
2023-05-05T23:41:57.553Z,7.55
2023-05-05T23:44:24.057Z,8.20
2023-05-05T23:46:50.509Z,8.02
2023-05-05T23:49:17.022Z,5.72
2023-05-05T23:51:43.566Z,6.93
2023-05-05T23:54:10.131Z,6.70
2023-05-05T23:56:36.736Z,9.55
2023-05-05T23:59:03.358Z,8.93
